sensor_id;sensor_type;location;lat;lon;timestamp;pressure;altitude;pressure_sealevel;temperature;humidity
5996;BME280;3026;53.612;7.278;2023-03-29T00:01:59;101570.66;;;5.16;100.00
5996;BME280;3026;53.612;7.278;2023-03-29T00:04:27;101574.34;;;5.15;100.00
5996;BME280;3026;53.612;7.278;2023-03-29T00:06:58;101566.97;;;5.17;100.00
5996;BME280;3026;53.612;7.278;2023-03-29T00:09:29;101558.13;;;5.15;100.00
5996;BME280;3026;53.612;7.278;2023-03-29T00:11:57;101559.84;;;5.16;100.00
5996;BME280;3026;53.612;7.278;2023-03-29T00:14:26;101552.72;;;5.15;100.00
5996;BME280;3026;53.612;7.278;2023-03-29T00:16:53;101550.75;;;5.17;100.00
5996;BME280;3026;53.612;7.278;2023-03-29T00:19:20;101541.91;;;5.15;100.00
5996;BME280;3026;53.612;7.278;2023-03-29T00:21:47;101541.19;;;5.13;100.00
5996;BME280;3026;53.612;7.278;2023-03-29T00:24:13;101535.78;;;5.13;100.00
5996;BME280;3026;53.612;7.278;2023-03-29T00:26:40;101538.47;;;5.13;100.00
5996;BME280;3026;53.612;7.278;2023-03-29T00:29:07;101528.88;;;5.09;100.00
5996;BME280;3026;53.612;7.278;2023-03-29T00:31:35;101535.16;;;5.10;100.00
5996;BME280;3026;53.612;7.278;2023-03-29T00:34:02;101522.97;;;5.04;100.00
5996;BME280;3026;53.612;7.278;2023-03-29T00:36:29;101517.31;;;5.07;100.00
5996;BME280;3026;53.612;7.278;2023-03-29T00:38:56;101516.47;;;5.07;100.00
5996;BME280;3026;53.612;7.278;2023-03-29T00:41:23;101515.84;;;5.03;100.00
5996;BME280;3026;53.612;7.278;2023-03-29T00:43:55;101518.44;;;5.05;100.00
5996;BME280;3026;53.612;7.278;2023-03-29T00:46:22;101506.03;;;5.02;100.00
5996;BME280;3026;53.612;7.278;2023-03-29T00:48:54;101499.63;;;5.03;100.00
5996;BME280;3026;53.612;7.278;2023-03-29T00:51:25;101503.06;;;5.05;100.00
5996;BME280;3026;53.612;7.278;2023-03-29T00:53:56;101498.53;;;5.06;100.00
5996;BME280;3026;53.612;7.278;2023-03-29T00:56:27;101510.94;;;5.08;100.00
5996;BME280;3026;53.612;7.278;2023-03-29T00:58:58;101500.97;;;5.09;100.00
5996;BME280;3026;53.612;7.278;2023-03-29T01:01:32;101504.53;;;5.09;100.00
5996;BME280;3026;53.612;7.278;2023-03-29T01:04:08;101506.28;;;5.10;100.00
5996;BME280;3026;53.612;7.278;2023-03-29T01:06:45;101503.59;;;5.10;100.00
5996;BME280;3026;53.612;7.278;2023-03-29T01:09:15;101493.50;;;5.12;100.00
5996;BME280;3026;53.612;7.278;2023-03-29T01:11:48;101482.69;;;5.12;100.00
5996;BME280;3026;53.612;7.278;2023-03-29T01:14:20;101488.97;;;5.13;100.00
5996;BME280;3026;53.612;7.278;2023-03-29T01:16:49;101479.00;;;5.13;100.00
5996;BME280;3026;53.612;7.278;2023-03-29T01:19:19;101473.59;;;5.13;100.00
5996;BME280;3026;53.612;7.278;2023-03-29T01:21:59;101463.66;;;5.14;100.00
5996;BME280;3026;53.612;7.278;2023-03-29T01:24:47;101469.66;;;5.17;100.00
5996;BME280;3026;53.612;7.278;2023-03-29T01:27:37;101464.00;;;5.20;100.00
5996;BME280;3026;53.612;7.278;2023-03-29T01:30:11;101465.75;;;5.21;100.00
5996;BME280;3026;53.612;7.278;2023-03-29T01:32:44;101458.38;;;5.23;100.00
5996;BME280;3026;53.612;7.278;2023-03-29T01:35:14;101459.22;;;5.24;100.00
5996;BME280;3026;53.612;7.278;2023-03-29T01:37:49;101444.13;;;5.21;100.00
5996;BME280;3026;53.612;7.278;2023-03-29T01:40:17;101450.13;;;5.25;100.00
5996;BME280;3026;53.612;7.278;2023-03-29T01:42:49;101443.59;;;5.27;100.00
5996;BME280;3026;53.612;7.278;2023-03-29T01:45:22;101427.38;;;5.27;100.00
5996;BME280;3026;53.612;7.278;2023-03-29T01:47:54;101436.22;;;5.30;100.00
5996;BME280;3026;53.612;7.278;2023-03-29T01:50:31;101428.25;;;5.28;100.00
5996;BME280;3026;53.612;7.278;2023-03-29T01:53:06;101432.53;;;5.31;100.00
5996;BME280;3026;53.612;7.278;2023-03-29T01:55:36;101428.84;;;5.32;100.00
5996;BME280;3026;53.612;7.278;2023-03-29T01:58:08;101429.59;;;5.34;100.00
5996;BME280;3026;53.612;7.278;2023-03-29T02:00:37;101421.50;;;5.34;100.00
5996;BME280;3026;53.612;7.278;2023-03-29T02:03:08;101423.94;;;5.37;100.00
5996;BME280;3026;53.612;7.278;2023-03-29T02:05:36;101432.91;;;5.37;100.00
5996;BME280;3026;53.612;7.278;2023-03-29T02:08:07;101422.94;;;5.38;100.00
5996;BME280;3026;53.612;7.278;2023-03-29T02:10:35;101412.25;;;5.36;100.00
5996;BME280;3026;53.612;7.278;2023-03-29T02:13:03;101419.25;;;5.39;100.00
5996;BME280;3026;53.612;7.278;2023-03-29T02:15:32;101410.88;;;5.42;100.00
5996;BME280;3026;53.612;7.278;2023-03-29T02:18:00;101417.03;;;5.44;100.00
5996;BME280;3026;53.612;7.278;2023-03-29T02:20:29;101406.47;;;5.41;100.00
5996;BME280;3026;53.612;7.278;2023-03-29T02:23:02;101416.78;;;5.47;100.00
5996;BME280;3026;53.612;7.278;2023-03-29T02:25:30;101408.69;;;5.47;100.00
5996;BME280;3026;53.612;7.278;2023-03-29T02:27:58;101411.13;;;5.50;100.00
5996;BME280;3026;53.612;7.278;2023-03-29T02:30:29;101404.72;;;5.51;100.00
5996;BME280;3026;53.612;7.278;2023-03-29T02:33:04;101394.63;;;5.53;100.00
5996;BME280;3026;53.612;7.278;2023-03-29T02:35:33;101392.66;;;5.55;100.00
5996;BME280;3026;53.612;7.278;2023-03-29T02:38:02;101385.53;;;5.54;100.00
5996;BME280;3026;53.612;7.278;2023-03-29T02:40:31;101385.31;;;5.57;100.00
5996;BME280;3026;53.612;7.278;2023-03-29T02:43:00;101377.91;;;5.59;100.00
5996;BME280;3026;53.612;7.278;2023-03-29T02:45:28;101370.53;;;5.61;100.00
5996;BME280;3026;53.612;7.278;2023-03-29T02:47:57;101376.78;;;5.62;100.00
5996;BME280;3026;53.612;7.278;2023-03-29T02:50:33;101372.25;;;5.62;100.00
5996;BME280;3026;53.612;7.278;2023-03-29T02:53:03;101364.00;;;5.64;100.00
5996;BME280;3026;53.612;7.278;2023-03-29T02:55:32;101356.59;;;5.66;100.00
5996;BME280;3026;53.612;7.278;2023-03-29T02:58:00;101353.16;;;5.64;100.00
5996;BME280;3026;53.612;7.278;2023-03-29T03:00:33;101353.75;;;5.67;100.00
5996;BME280;3026;53.612;7.278;2023-03-29T03:03:02;101346.63;;;5.66;100.00
5996;BME280;3026;53.612;7.278;2023-03-29T03:05:31;101343.69;;;5.69;100.00
5996;BME280;3026;53.612;7.278;2023-03-29T03:07:58;101336.56;;;5.68;100.00
5996;BME280;3026;53.612;7.278;2023-03-29T03:10:25;101341.84;;;5.70;100.00
5996;BME280;3026;53.612;7.278;2023-03-29T03:12:52;101342.69;;;5.70;100.00
5996;BME280;3026;53.612;7.278;2023-03-29T03:15:19;101331.88;;;5.70;100.00
5996;BME280;3026;53.612;7.278;2023-03-29T03:17:45;101329.19;;;5.70;100.00
5996;BME280;3026;53.612;7.278;2023-03-29T03:20:13;101325.34;;;5.73;100.00
5996;BME280;3026;53.612;7.278;2023-03-29T03:22:43;101327.91;;;5.74;100.00
5996;BME280;3026;53.612;7.278;2023-03-29T03:25:13;101331.63;;;5.73;100.00
5996;BME280;3026;53.612;7.278;2023-03-29T03:27:41;101318.09;;;5.73;100.00
5996;BME280;3026;53.612;7.278;2023-03-29T03:30:09;101317.09;;;5.74;100.00
5996;BME280;3026;53.612;7.278;2023-03-29T03:32:36;101322.50;;;5.74;100.00
5996;BME280;3026;53.612;7.278;2023-03-29T03:35:04;101328.78;;;5.75;100.00
5996;BME280;3026;53.612;7.278;2023-03-29T03:37:32;101324.22;;;5.75;100.00
5996;BME280;3026;53.612;7.278;2023-03-29T03:40:00;101303.69;;;5.73;100.00
5996;BME280;3026;53.612;7.278;2023-03-29T03:42:29;101322.25;;;5.77;100.00
5996;BME280;3026;53.612;7.278;2023-03-29T03:44:56;101316.81;;;5.77;100.00
5996;BME280;3026;53.612;7.278;2023-03-29T03:47:23;101322.25;;;5.77;100.00
5996;BME280;3026;53.612;7.278;2023-03-29T03:49:50;101320.28;;;5.79;100.00
5996;BME280;3026;53.612;7.278;2023-03-29T03:52:18;101325.69;;;5.79;100.00
5996;BME280;3026;53.612;7.278;2023-03-29T03:54:44;101313.41;;;5.75;100.00
5996;BME280;3026;53.612;7.278;2023-03-29T03:57:14;101314.88;;;5.79;100.00
5996;BME280;3026;53.612;7.278;2023-03-29T03:59:40;101313.41;;;5.75;100.00
5996;BME280;3026;53.612;7.278;2023-03-29T04:02:07;101316.81;;;5.77;100.00
5996;BME280;3026;53.612;7.278;2023-03-29T04:04:34;101316.81;;;5.77;100.00
5996;BME280;3026;53.612;7.278;2023-03-29T04:07:01;101319.44;;;5.79;100.00
5996;BME280;3026;53.612;7.278;2023-03-29T04:09:29;101306.00;;;5.77;100.00
5996;BME280;3026;53.612;7.278;2023-03-29T04:11:57;101304.28;;;5.76;100.00
5996;BME280;3026;53.612;7.278;2023-03-29T04:14:26;101312.03;;;5.81;100.00
5996;BME280;3026;53.612;7.278;2023-03-29T04:16:53;101298.88;;;5.76;100.00
5996;BME280;3026;53.612;7.278;2023-03-29T04:19:21;101296.88;;;5.78;100.00
5996;BME280;3026;53.612;7.278;2023-03-29T04:21:47;101284.50;;;5.76;100.00
5996;BME280;3026;53.612;7.278;2023-03-29T04:24:15;101284.34;;;5.77;100.00
5996;BME280;3026;53.612;7.278;2023-03-29T04:26:43;101284.13;;;5.80;100.00
5996;BME280;3026;53.612;7.278;2023-03-29T04:29:10;101276.38;;;5.76;100.00
5996;BME280;3026;53.612;7.278;2023-03-29T04:31:39;101274.00;;;5.82;100.00
5996;BME280;3026;53.612;7.278;2023-03-29T04:34:06;101266.16;;;5.79;100.00
5996;BME280;3026;53.612;7.278;2023-03-29T04:36:33;101268.25;;;5.76;100.00
5996;BME280;3026;53.612;7.278;2023-03-29T04:39:00;101273.28;;;5.80;100.00
5996;BME280;3026;53.612;7.278;2023-03-29T04:41:28;101275.13;;;5.80;100.00
5996;BME280;3026;53.612;7.278;2023-03-29T04:43:57;101269.59;;;5.81;100.00
5996;BME280;3026;53.612;7.278;2023-03-29T04:46:23;101264.19;;;5.81;100.00
5996;BME280;3026;53.612;7.278;2023-03-29T04:48:52;101259.00;;;5.78;100.00
5996;BME280;3026;53.612;7.278;2023-03-29T04:51:19;101262.47;;;5.80;100.00
5996;BME280;3026;53.612;7.278;2023-03-29T04:53:48;101267.88;;;5.80;100.00
5996;BME280;3026;53.612;7.278;2023-03-29T04:56:16;101258.75;;;5.81;100.00
5996;BME280;3026;53.612;7.278;2023-03-29T04:58:43;101264.19;;;5.81;100.00
5996;BME280;3026;53.612;7.278;2023-03-29T05:01:10;101261.47;;;5.81;100.00
5996;BME280;3026;53.612;7.278;2023-03-29T05:03:37;101256.19;;;5.80;100.00
5996;BME280;3026;53.612;7.278;2023-03-29T05:06:07;101253.34;;;5.81;100.00
5996;BME280;3026;53.612;7.278;2023-03-29T05:08:37;101256.06;;;5.81;100.00
5996;BME280;3026;53.612;7.278;2023-03-29T05:11:05;101248.19;;;5.78;100.00
5996;BME280;3026;53.612;7.278;2023-03-29T05:13:33;101245.38;;;5.80;100.00
5996;BME280;3026;53.612;7.278;2023-03-29T05:16:07;101249.66;;;5.82;100.00
5996;BME280;3026;53.612;7.278;2023-03-29T05:18:37;101254.22;;;5.82;100.00
5996;BME280;3026;53.612;7.278;2023-03-29T05:21:05;101252.34;;;5.82;100.00
5996;BME280;3026;53.612;7.278;2023-03-29T05:23:33;101254.06;;;5.83;100.00
5996;BME280;3026;53.612;7.278;2023-03-29T05:26:00;101262.19;;;5.83;100.00
5996;BME280;3026;53.612;7.278;2023-03-29T05:28:28;101260.22;;;5.85;100.00
5996;BME280;3026;53.612;7.278;2023-03-29T05:30:59;101254.78;;;5.85;100.00
5996;BME280;3026;53.612;7.278;2023-03-29T05:33:26;101245.69;;;5.86;100.00
5996;BME280;3026;53.612;7.278;2023-03-29T05:36:00;101254.53;;;5.89;100.00
5996;BME280;3026;53.612;7.278;2023-03-29T05:38:29;101245.97;;;5.83;100.00
5996;BME280;3026;53.612;7.278;2023-03-29T05:40:57;101242.25;;;5.84;100.00
5996;BME280;3026;53.612;7.278;2023-03-29T05:43:25;101245.69;;;5.86;100.00
5996;BME280;3026;53.612;7.278;2023-03-29T05:45:52;101252.59;;;5.91;100.00
5996;BME280;3026;53.612;7.278;2023-03-29T05:48:19;101250.63;;;5.93;100.00
5996;BME280;3026;53.612;7.278;2023-03-29T05:50:47;101254.75;;;5.97;100.00
5996;BME280;3026;53.612;7.278;2023-03-29T05:53:14;101260.31;;;5.95;100.00
5996;BME280;3026;53.612;7.278;2023-03-29T05:55:43;101252.06;;;5.97;100.00
5996;BME280;3026;53.612;7.278;2023-03-29T05:58:11;101253.75;;;5.98;100.00
5996;BME280;3026;53.612;7.278;2023-03-29T06:00:38;101250.06;;;5.99;100.00
5996;BME280;3026;53.612;7.278;2023-03-29T06:03:06;101253.50;;;6.01;100.00
5996;BME280;3026;53.612;7.278;2023-03-29T06:05:34;101253.75;;;5.98;100.00
5996;BME280;3026;53.612;7.278;2023-03-29T06:08:01;101242.94;;;5.98;100.00
5996;BME280;3026;53.612;7.278;2023-03-29T06:10:28;101242.94;;;5.98;100.00
5996;BME280;3026;53.612;7.278;2023-03-29T06:12:56;101251.78;;;6.00;100.00
5996;BME280;3026;53.612;7.278;2023-03-29T06:15:24;101246.63;;;5.97;100.00
5996;BME280;3026;53.612;7.278;2023-03-29T06:17:51;101248.06;;;6.01;100.00
5996;BME280;3026;53.612;7.278;2023-03-29T06:20:18;101249.78;;;6.02;100.00
5996;BME280;3026;53.612;7.278;2023-03-29T06:22:45;101256.94;;;6.03;100.00
5996;BME280;3026;53.612;7.278;2023-03-29T06:25:13;101251.53;;;6.03;100.00
5996;BME280;3026;53.612;7.278;2023-03-29T06:27:41;101253.25;;;6.04;100.00
5996;BME280;3026;53.612;7.278;2023-03-29T06:30:13;101252.41;;;6.03;100.00
5996;BME280;3026;53.612;7.278;2023-03-29T06:32:41;101254.09;;;6.04;100.00
5996;BME280;3026;53.612;7.278;2023-03-29T06:35:09;101258.38;;;6.07;100.00
5996;BME280;3026;53.612;7.278;2023-03-29T06:37:37;101262.09;;;6.06;100.00
5996;BME280;3026;53.612;7.278;2023-03-29T06:40:06;101261.81;;;6.09;100.00
5996;BME280;3026;53.612;7.278;2023-03-29T06:42:34;101254.69;;;6.08;100.00
5996;BME280;3026;53.612;7.278;2023-03-29T06:45:01;101254.56;;;6.09;100.00
5996;BME280;3026;53.612;7.278;2023-03-29T06:47:30;101259.81;;;6.11;100.00
5996;BME280;3026;53.612;7.278;2023-03-29T06:49:58;101256.25;;;6.10;100.00
5996;BME280;3026;53.612;7.278;2023-03-29T06:52:24;101265.00;;;6.14;100.00
5996;BME280;3026;53.612;7.278;2023-03-29T06:54:52;101264.72;;;6.17;100.00
5996;BME280;3026;53.612;7.278;2023-03-29T06:57:18;101261.28;;;6.15;100.00
5996;BME280;3026;53.612;7.278;2023-03-29T06:59:45;101260.44;;;6.14;100.00
5996;BME280;3026;53.612;7.278;2023-03-29T07:02:13;101275.28;;;6.20;100.00
5996;BME280;3026;53.612;7.278;2023-03-29T07:04:42;101267.88;;;6.22;100.00
5996;BME280;3026;53.612;7.278;2023-03-29T07:07:08;101264.16;;;6.23;100.00
5996;BME280;3026;53.612;7.278;2023-03-29T07:09:44;101258.50;;;6.26;100.00
5996;BME280;3026;53.612;7.278;2023-03-29T07:12:19;101256.50;;;6.28;100.00
5996;BME280;3026;53.612;7.278;2023-03-29T07:14:46;101246.69;;;6.27;100.00
5996;BME280;3026;53.612;7.278;2023-03-29T07:17:13;101255.97;;;6.34;100.00
5996;BME280;3026;53.612;7.278;2023-03-29T07:19:42;101253.97;;;6.36;100.00
5996;BME280;3026;53.612;7.278;2023-03-29T07:22:09;101257.16;;;6.41;100.00
5996;BME280;3026;53.612;7.278;2023-03-29T07:24:36;101264.28;;;6.42;100.00
5996;BME280;3026;53.612;7.278;2023-03-29T07:27:03;101254.16;;;6.44;100.00
5996;BME280;3026;53.612;7.278;2023-03-29T07:29:30;101254.72;;;6.48;100.00
5996;BME280;3026;53.612;7.278;2023-03-29T07:31:57;101248.47;;;6.48;100.00
5996;BME280;3026;53.612;7.278;2023-03-29T07:34:24;101255.47;;;6.50;100.00
5996;BME280;3026;53.612;7.278;2023-03-29T07:36:52;101246.66;;;6.58;100.00
5996;BME280;3026;53.612;7.278;2023-03-29T07:39:20;101239.22;;;6.60;100.00
5996;BME280;3026;53.612;7.278;2023-03-29T07:41:46;101255.69;;;6.68;100.00
5996;BME280;3026;53.612;7.278;2023-03-29T07:44:13;101256.38;;;6.70;100.00
5996;BME280;3026;53.612;7.278;2023-03-29T07:46:43;101248.72;;;6.75;100.00
5996;BME280;3026;53.612;7.278;2023-03-29T07:49:10;101253.84;;;6.78;100.00
5996;BME280;3026;53.612;7.278;2023-03-29T07:51:37;101255.44;;;6.81;100.00
5996;BME280;3026;53.612;7.278;2023-03-29T07:54:05;101258.47;;;6.87;100.00
5996;BME280;3026;53.612;7.278;2023-03-29T07:56:32;101254.47;;;6.91;100.00
5996;BME280;3026;53.612;7.278;2023-03-29T07:58:59;101254.19;;;6.94;100.00
5996;BME280;3026;53.612;7.278;2023-03-29T08:01:26;101257.06;;;7.02;100.00
5996;BME280;3026;53.612;7.278;2023-03-29T08:03:53;101258.22;;;7.10;100.00
5996;BME280;3026;53.612;7.278;2023-03-29T08:06:20;101259.94;;;7.11;100.00
5996;BME280;3026;53.612;7.278;2023-03-29T08:08:47;101252.81;;;7.19;100.00
5996;BME280;3026;53.612;7.278;2023-03-29T08:11:15;101255.81;;;7.26;100.00
5996;BME280;3026;53.612;7.278;2023-03-29T08:13:43;101255.97;;;7.34;100.00
5996;BME280;3026;53.612;7.278;2023-03-29T08:16:09;101248.53;;;7.36;100.00
5996;BME280;3026;53.612;7.278;2023-03-29T08:18:37;101257.13;;;7.41;100.00
5996;BME280;3026;53.612;7.278;2023-03-29T08:21:04;101272.13;;;7.45;100.00
5996;BME280;3026;53.612;7.278;2023-03-29T08:23:31;101260.25;;;7.46;100.00
5996;BME280;3026;53.612;7.278;2023-03-29T08:25:58;101263.69;;;7.48;100.00
5996;BME280;3026;53.612;7.278;2023-03-29T08:28:26;101261.97;;;7.47;100.00
5996;BME280;3026;53.612;7.278;2023-03-29T08:30:54;101262.53;;;7.51;100.00
5996;BME280;3026;53.612;7.278;2023-03-29T08:33:20;101260.41;;;7.54;100.00
5996;BME280;3026;53.612;7.278;2023-03-29T08:35:47;101257.41;;;7.57;100.00
5996;BME280;3026;53.612;7.278;2023-03-29T08:38:14;101241.41;;;7.54;100.00
5996;BME280;3026;53.612;7.278;2023-03-29T08:40:41;101250.25;;;7.56;100.00
5996;BME280;3026;53.612;7.278;2023-03-29T08:43:33;101257.97;;;7.61;100.00
5996;BME280;3026;53.612;7.278;2023-03-29T08:46:10;101251.69;;;7.60;100.00
5996;BME280;3026;53.612;7.278;2023-03-29T08:48:43;101249.69;;;7.63;100.00
5996;BME280;3026;53.612;7.278;2023-03-29T08:51:17;101251.13;;;7.67;100.00
5996;BME280;3026;53.612;7.278;2023-03-29T08:53:49;101259.97;;;7.69;100.00
5996;BME280;3026;53.612;7.278;2023-03-29T08:56:20;101246.81;;;7.74;100.00
5996;BME280;3026;53.612;7.278;2023-03-29T08:58:51;101241.13;;;7.77;100.00
5996;BME280;3026;53.612;7.278;2023-03-29T09:01:20;101239.97;;;7.79;100.00
5996;BME280;3026;53.612;7.278;2023-03-29T09:03:56;101244.53;;;7.88;100.00
5996;BME280;3026;53.612;7.278;2023-03-29T09:06:26;101234.22;;;7.92;100.00
5996;BME280;3026;53.612;7.278;2023-03-29T09:08:53;101228.50;;;7.95;100.00
5996;BME280;3026;53.612;7.278;2023-03-29T09:11:31;101233.63;;;7.98;100.00
5996;BME280;3026;53.612;7.278;2023-03-29T09:14:19;101234.22;;;8.02;100.00
5996;BME280;3026;53.612;7.278;2023-03-29T09:16:55;101246.19;;;8.09;100.00
5996;BME280;3026;53.612;7.278;2023-03-29T09:19:28;101237.91;;;8.10;100.00
5996;BME280;3026;53.612;7.278;2023-03-29T09:22:06;101246.47;;;8.15;100.00
5996;BME280;3026;53.612;7.278;2023-03-29T09:24:41;101229.31;;;8.15;100.00
5996;BME280;3026;53.612;7.278;2023-03-29T09:27:14;101247.59;;;8.23;100.00
5996;BME280;3026;53.612;7.278;2023-03-29T09:29:56;101230.13;;;8.25;100.00
5996;BME280;3026;53.612;7.278;2023-03-29T09:32:31;101234.41;;;8.28;100.00
5996;BME280;3026;53.612;7.278;2023-03-29T09:35:09;101221.22;;;8.33;100.00
5996;BME280;3026;53.612;7.278;2023-03-29T09:37:43;101228.13;;;8.37;100.00
5996;BME280;3026;53.612;7.278;2023-03-29T09:40:12;101232.69;;;8.46;100.00
5996;BME280;3026;53.612;7.278;2023-03-29T09:42:42;101230.19;;;8.53;100.00
5996;BME280;3026;53.612;7.278;2023-03-29T09:45:11;101213.16;;;8.60;100.00
5996;BME280;3026;53.612;7.278;2023-03-29T09:47:43;101207.41;;;8.63;100.00
5996;BME280;3026;53.612;7.278;2023-03-29T09:50:15;101198.34;;;8.72;100.00
5996;BME280;3026;53.612;7.278;2023-03-29T09:52:43;101196.44;;;8.83;100.00
5996;BME280;3026;53.612;7.278;2023-03-29T09:55:12;101186.34;;;8.93;100.00
5996;BME280;3026;53.612;7.278;2023-03-29T09:57:41;101193.19;;;8.97;100.00
5996;BME280;3026;53.612;7.278;2023-03-29T10:00:09;101204.31;;;9.03;100.00
5996;BME280;3026;53.612;7.278;2023-03-29T10:02:39;101204.53;;;9.10;100.00
5996;BME280;3026;53.612;7.278;2023-03-29T10:05:07;101194.50;;;9.11;100.00
5996;BME280;3026;53.612;7.278;2023-03-29T10:07:39;101187.50;;;9.08;100.00
5996;BME280;3026;53.612;7.278;2023-03-29T10:10:10;101194.75;;;9.17;100.00
5996;BME280;3026;53.612;7.278;2023-03-29T10:12:47;101202.13;;;9.25;100.00
5996;BME280;3026;53.612;7.278;2023-03-29T10:15:17;101183.63;;;9.28;100.00
5996;BME280;3026;53.612;7.278;2023-03-29T10:17:46;101194.28;;;9.40;100.00
5996;BME280;3026;53.612;7.278;2023-03-29T10:20:16;101190.22;;;9.44;100.00
5996;BME280;3026;53.612;7.278;2023-03-29T10:22:53;101195.06;;;9.50;100.00
5996;BME280;3026;53.612;7.278;2023-03-29T10:25:24;101196.44;;;9.54;100.00
5996;BME280;3026;53.612;7.278;2023-03-29T10:27:55;101199.53;;;9.59;100.00
5996;BME280;3026;53.612;7.278;2023-03-29T10:30:24;101204.69;;;9.62;100.00
5996;BME280;3026;53.612;7.278;2023-03-29T10:32:57;101209.81;;;9.65;100.00
5996;BME280;3026;53.612;7.278;2023-03-29T10:35:30;101200.31;;;9.69;100.00
5996;BME280;3026;53.612;7.278;2023-03-29T10:38:02;101210.56;;;9.75;100.00
5996;BME280;3026;53.612;7.278;2023-03-29T10:40:32;101200.75;;;9.82;100.00
5996;BME280;3026;53.612;7.278;2023-03-29T10:43:00;101214.75;;;9.87;100.00
5996;BME280;3026;53.612;7.278;2023-03-29T10:45:37;101214.75;;;9.87;100.00
5996;BME280;3026;53.612;7.278;2023-03-29T10:48:10;101199.78;;;9.91;100.00
5996;BME280;3026;53.612;7.278;2023-03-29T10:50:38;101191.44;;;9.93;100.00
5996;BME280;3026;53.612;7.278;2023-03-29T10:53:12;101201.88;;;9.98;100.00
5996;BME280;3026;53.612;7.278;2023-03-29T10:55:46;101217.25;;;10.07;100.00
5996;BME280;3026;53.612;7.278;2023-03-29T10:58:26;101210.81;;;10.08;100.00
5996;BME280;3026;53.612;7.278;2023-03-29T11:00:55;101208.22;;;10.06;100.00
5996;BME280;3026;53.612;7.278;2023-03-29T11:03:47;101215.59;;;10.14;100.00
5996;BME280;3026;53.612;7.278;2023-03-29T11:06:25;101210.50;;;10.11;100.00
5996;BME280;3026;53.612;7.278;2023-03-29T11:08:56;101217.66;;;10.12;100.00
5996;BME280;3026;53.612;7.278;2023-03-29T11:11:37;101221.06;;;10.14;100.00
5996;BME280;3026;53.612;7.278;2023-03-29T11:14:15;101214.91;;;10.12;100.00
5996;BME280;3026;53.612;7.278;2023-03-29T11:16:50;101222.75;;;10.15;100.00
5996;BME280;3026;53.612;7.278;2023-03-29T11:19:33;101225.31;;;10.16;100.00
5996;BME280;3026;53.612;7.278;2023-03-29T11:22:06;101222.75;;;10.15;100.00
5996;BME280;3026;53.612;7.278;2023-03-29T11:24:50;101213.56;;;10.16;100.00
5996;BME280;3026;53.612;7.278;2023-03-29T11:27:27;101217.84;;;10.18;100.00
5996;BME280;3026;53.612;7.278;2023-03-29T11:30:05;101221.50;;;10.27;100.00
5996;BME280;3026;53.612;7.278;2023-03-29T11:32:40;101221.19;;;10.30;100.00
5996;BME280;3026;53.612;7.278;2023-03-29T11:35:21;101217.13;;;10.34;100.00
5996;BME280;3026;53.612;7.278;2023-03-29T11:37:56;101217.13;;;10.34;100.00
5996;BME280;3026;53.612;7.278;2023-03-29T11:40:37;101212.19;;;10.38;100.00
5996;BME280;3026;53.612;7.278;2023-03-29T11:43:10;101196.69;;;10.38;100.00
5996;BME280;3026;53.612;7.278;2023-03-29T11:45:42;101196.38;;;10.41;100.00
5996;BME280;3026;53.612;7.278;2023-03-29T11:48:16;101187.34;;;10.41;100.00
5996;BME280;3026;53.612;7.278;2023-03-29T11:50:50;101196.56;;;10.48;100.00
5996;BME280;3026;53.612;7.278;2023-03-29T11:53:21;101177.31;;;10.49;100.00
5996;BME280;3026;53.612;7.278;2023-03-29T11:55:51;101194.41;;;10.60;100.00
5996;BME280;3026;53.612;7.278;2023-03-29T11:58:24;101181.47;;;10.62;100.00
5996;BME280;3026;53.612;7.278;2023-03-29T12:00:56;101185.94;;;10.71;100.00
5996;BME280;3026;53.612;7.278;2023-03-29T12:03:32;101178.44;;;10.73;100.00
5996;BME280;3026;53.612;7.278;2023-03-29T12:06:09;101181.84;;;10.75;100.00
5996;BME280;3026;53.612;7.278;2023-03-29T12:08:41;101178.44;;;10.73;100.00
5996;BME280;3026;53.612;7.278;2023-03-29T12:11:14;101188.69;;;10.79;100.00
5996;BME280;3026;53.612;7.278;2023-03-29T12:13:47;101189.72;;;10.78;100.00
5996;BME280;3026;53.612;7.278;2023-03-29T12:16:19;101191.78;;;10.84;100.00
5996;BME280;3026;53.612;7.278;2023-03-29T12:18:49;101183.97;;;10.89;100.00
5996;BME280;3026;53.612;7.278;2023-03-29T12:21:20;101180.72;;;10.94;100.00
5996;BME280;3026;53.612;7.278;2023-03-29T12:23:48;101185.34;;;11.01;100.00
5996;BME280;3026;53.612;7.278;2023-03-29T12:26:28;101172.75;;;11.00;100.00
5996;BME280;3026;53.612;7.278;2023-03-29T12:29:21;101174.63;;;11.00;100.00
5996;BME280;3026;53.612;7.278;2023-03-29T12:32:00;101174.06;;;10.96;100.00
5996;BME280;3026;53.612;7.278;2023-03-29T12:34:47;101181.06;;;10.99;100.00
5996;BME280;3026;53.612;7.278;2023-03-29T12:37:29;101171.00;;;10.99;100.00
5996;BME280;3026;53.612;7.278;2023-03-29T12:40:11;101170.00;;;11.00;100.00
5996;BME280;3026;53.612;7.278;2023-03-29T12:42:45;101164.22;;;11.03;100.00
5996;BME280;3026;53.612;7.278;2023-03-29T12:45:18;101166.75;;;11.05;100.00
5996;BME280;3026;53.612;7.278;2023-03-29T12:47:48;101156.69;;;11.05;100.00
5996;BME280;3026;53.612;7.278;2023-03-29T12:50:23;101159.25;;;11.07;100.00
5996;BME280;3026;53.612;7.278;2023-03-29T12:53:02;101158.22;;;11.08;100.00
5996;BME280;3026;53.612;7.278;2023-03-29T12:55:32;101162.34;;;11.12;100.00
5996;BME280;3026;53.612;7.278;2023-03-29T12:58:02;101172.06;;;11.15;100.00
5996;BME280;3026;53.612;7.278;2023-03-29T13:00:32;101157.41;;;11.16;100.00
5996;BME280;3026;53.612;7.278;2023-03-29T13:03:20;101165.91;;;11.21;100.00
5996;BME280;3026;53.612;7.278;2023-03-29T13:05:58;101158.75;;;11.20;100.00
5996;BME280;3026;53.612;7.278;2023-03-29T13:08:33;101150.94;;;11.25;100.00
5996;BME280;3026;53.612;7.278;2023-03-29T13:11:01;101144.78;;;11.31;100.00
5996;BME280;3026;53.612;7.278;2023-03-29T13:13:31;101132.50;;;11.35;100.00
5996;BME280;3026;53.612;7.278;2023-03-29T13:16:11;101133.69;;;11.40;100.00
5996;BME280;3026;53.612;7.278;2023-03-29T13:18:49;101128.91;;;11.51;100.00
5996;BME280;3026;53.612;7.278;2023-03-29T13:21:26;101127.03;;;11.59;100.00
5996;BME280;3026;53.612;7.278;2023-03-29T13:24:03;101126.34;;;11.65;100.00
5996;BME280;3026;53.612;7.278;2023-03-29T13:26:51;101121.91;;;11.73;100.00
5996;BME280;3026;53.612;7.278;2023-03-29T13:29:40;101108.06;;;11.74;100.00